Richmond's Hourly Summary for Friday, April 14, 2017
Hour Temp
(f)
RH
(%)
Solar Rad.
(MJ/m2)
Rainfall
(in)
Wind
(mph)
4/14/2017 12:00 AM 65 92 0 0 0.06
4/14/2017 1:00 AM 64 95 0 0 0
4/14/2017 2:00 AM 63 96 0 0 0.04
4/14/2017 3:00 AM 63 96 0 0 0.09
4/14/2017 4:00 AM 62 97 0 0 0.08
4/14/2017 5:00 AM 63 97 0 0 0.74
4/14/2017 6:00 AM 64 98 0 0 2.62
4/14/2017 7:00 AM 64 97 0 0 2.2
4/14/2017 8:00 AM 65 96 0.12 0 2.85
4/14/2017 9:00 AM 68 89 0.53 0 5.32
4/14/2017 10:00 AM 71 83 0.96 0 6.2
4/14/2017 11:00 AM 74 68 1.68 0 6.39
4/14/2017 12:00 PM 77 57 2.35 0 6.19
4/14/2017 1:00 PM 76 59 1.37 0 6.38
4/14/2017 2:00 PM 78 58 2.02 0 6.35
4/14/2017 3:00 PM 74 67 0.51 0 6.26
4/14/2017 4:00 PM 76 61 1.21 0 6.63
4/14/2017 5:00 PM 78 60 1.93 0 8.38
4/14/2017 6:00 PM 78 59 1.77 0 8.48
4/14/2017 7:00 PM 76 61 0.69 0 7.95
4/14/2017 8:00 PM 73 67 0.14 0 6.03
4/14/2017 9:00 PM 70 80 0 0 5.71
4/14/2017 10:00 PM 69 83 0 0 4.6
4/14/2017 11:00 PM 68 88 0 0 4.95
Data Summary 69 79 15.28 0.00 4.35